createdAt,value
2023-01-15T16:22:03.931Z,-1.09
2023-01-15T16:24:30.702Z,-0.94
2023-01-15T16:27:14.016Z,-0.89
2023-01-15T16:29:40.858Z,-0.84
2023-01-15T16:32:13.953Z,-0.83
2023-01-15T16:34:40.682Z,-0.81
2023-01-15T16:37:22.546Z,-0.79
2023-01-15T16:39:49.606Z,-0.75
2023-01-15T16:42:34.935Z,-0.73
2023-01-15T16:45:04.212Z,-0.71
2023-01-15T16:47:33.359Z,-0.70
2023-01-15T16:50:22.358Z,-0.70
2023-01-15T16:52:56.843Z,-0.69
2023-01-15T16:55:43.226Z,-0.69
2023-01-15T16:58:13.175Z,-0.68
2023-01-15T17:00:47.937Z,-0.67
2023-01-15T17:03:16.797Z,-0.67
2023-01-15T17:05:43.823Z,-0.65
2023-01-15T17:08:16.300Z,-0.66
2023-01-15T17:10:51.965Z,-0.66
2023-01-15T17:13:19.245Z,-0.65
2023-01-15T17:15:46.383Z,-0.63
2023-01-15T17:18:21.653Z,-0.65
2023-01-15T17:20:48.512Z,-0.66
2023-01-15T17:23:15.503Z,-0.66
2023-01-15T17:25:42.231Z,-0.66
2023-01-15T17:28:09.200Z,-0.66
2023-01-15T17:30:35.991Z,-0.68
2023-01-15T17:33:04.332Z,-0.71
2023-01-15T17:35:32.680Z,-0.74
2023-01-15T17:37:59.433Z,-0.76
2023-01-15T17:40:27.020Z,-0.76
2023-01-15T17:42:59.202Z,-0.77
2023-01-15T17:45:27.643Z,-0.76
2023-01-15T17:47:54.421Z,-0.75
2023-01-15T17:50:21.293Z,-0.73
2023-01-15T17:52:48.124Z,-0.72
2023-01-15T17:55:38.215Z,-0.74
2023-01-15T17:58:23.763Z,-0.75
2023-01-15T18:04:59.780Z,-0.76
2023-01-15T18:07:27.992Z,-0.74
2023-01-15T18:09:56.293Z,-0.74
2023-01-15T18:12:23.508Z,-0.75
2023-01-15T18:14:50.359Z,-0.76
2023-01-15T18:17:17.104Z,-0.77
2023-01-15T18:19:43.815Z,-0.81
2023-01-15T18:22:12.673Z,-0.83
2023-01-15T18:24:40.096Z,-0.83
2023-01-15T18:27:06.826Z,-0.83
2023-01-15T18:29:36.132Z,-0.85
2023-01-15T18:32:02.901Z,-0.87
2023-01-15T18:34:29.564Z,-0.87
2023-01-15T18:36:56.317Z,-0.87
2023-01-15T18:39:23.045Z,-0.86
2023-01-15T18:41:49.882Z,-0.86
2023-01-15T18:44:36.843Z,-0.85
2023-01-15T18:47:05.602Z,-0.83
2023-01-15T18:49:32.331Z,-0.82
2023-01-15T18:52:17.854Z,-0.82
2023-01-15T18:54:44.655Z,-0.82
2023-01-15T18:57:11.599Z,-0.85
2023-01-15T18:59:38.445Z,-0.87
2023-01-15T19:02:05.331Z,-0.87
2023-01-15T19:04:32.098Z,-0.88
2023-01-15T19:06:58.817Z,-0.91
2023-01-15T19:09:25.854Z,-0.93
2023-01-15T19:11:52.908Z,-0.93
2023-01-15T19:14:39.132Z,-0.96
2023-01-15T19:17:25.288Z,-0.98
2023-01-15T19:19:52.051Z,-1.00
2023-01-15T19:22:37.597Z,-1.02
2023-01-15T19:25:04.944Z,-1.02
2023-01-15T19:27:31.731Z,-1.02
2023-01-15T19:30:00.087Z,-1.01
2023-01-15T19:32:26.858Z,-1.01
2023-01-15T19:34:53.575Z,-1.01
2023-01-15T19:37:22.977Z,-1.03
2023-01-15T19:39:49.710Z,-1.03
2023-01-15T19:42:35.305Z,-1.03
2023-01-15T19:45:20.988Z,-1.05
2023-01-15T19:48:06.592Z,-1.05
2023-01-15T19:50:38.115Z,-1.06
2023-01-15T19:53:05.275Z,-1.08
2023-01-15T19:55:32.279Z,-1.08
2023-01-15T19:58:00.620Z,-1.07
2023-01-15T20:00:27.506Z,-1.05
2023-01-15T20:02:55.214Z,-1.03
2023-01-15T20:05:22.163Z,-1.01
2023-01-15T20:07:48.891Z,-0.98
2023-01-15T20:10:17.317Z,-0.97
2023-01-15T20:13:02.932Z,-0.96
2023-01-15T20:15:29.733Z,-0.96
2023-01-15T20:17:56.840Z,-0.97
2023-01-15T20:20:24.335Z,-0.99
2023-01-15T20:22:51.191Z,-1.01
2023-01-15T20:25:18.071Z,-1.03
2023-01-15T20:27:44.741Z,-1.04
2023-01-15T20:30:13.970Z,-1.04
2023-01-15T20:32:42.425Z,-1.07
2023-01-15T20:35:11.433Z,-1.09
2023-01-15T20:37:38.194Z,-1.10
2023-01-15T20:40:05.516Z,-1.13
2023-01-15T20:42:51.048Z,-1.15
2023-01-15T20:45:17.781Z,-1.17
2023-01-15T20:48:03.282Z,-1.18
2023-01-15T20:50:33.605Z,-1.18
2023-01-15T20:53:00.340Z,-1.19
2023-01-15T20:55:54.806Z,-1.20
2023-01-15T20:58:23.999Z,-1.20
2023-01-15T21:00:50.903Z,-1.19
2023-01-15T21:03:18.146Z,-1.17
2023-01-15T21:05:44.939Z,-1.16
2023-01-15T21:08:12.006Z,-1.16
2023-01-15T21:10:39.812Z,-1.17
2023-01-15T21:13:06.488Z,-1.17
2023-01-15T21:15:33.256Z,-1.18
2023-01-15T21:17:59.958Z,-1.19
2023-01-15T21:20:26.766Z,-1.23
2023-01-15T21:22:53.492Z,-1.25
2023-01-15T21:25:20.150Z,-1.29
2023-01-15T21:27:46.843Z,-1.30
2023-01-15T21:30:13.951Z,-1.29
2023-01-15T21:32:40.632Z,-1.28
2023-01-15T21:35:07.699Z,-1.27
2023-01-15T21:37:34.504Z,-1.26
2023-01-15T21:40:01.162Z,-1.27
2023-01-15T21:42:46.946Z,-1.27
2023-01-15T21:45:13.668Z,-1.29
2023-01-15T21:47:41.658Z,-1.30
2023-01-15T21:50:09.310Z,-1.30
2023-01-15T21:52:35.976Z,-1.29
2023-01-15T21:55:02.794Z,-1.30
2023-01-15T21:57:30.043Z,-1.33
2023-01-15T21:59:56.777Z,-1.34
2023-01-15T22:02:23.662Z,-1.35
2023-01-15T22:04:50.604Z,-1.37
2023-01-15T22:07:18.025Z,-1.39
2023-01-15T22:09:44.771Z,-1.39
2023-01-15T22:12:12.570Z,-1.38
2023-01-15T22:14:39.206Z,-1.37
2023-01-15T22:17:06.370Z,-1.37
2023-01-15T22:19:33.433Z,-1.37
2023-01-15T22:22:05.118Z,-1.38
2023-01-15T22:24:37.911Z,-1.39
2023-01-15T22:27:06.604Z,-1.41
2023-01-15T22:29:38.356Z,-1.40
2023-01-15T22:32:06.058Z,-1.39
2023-01-15T22:34:32.733Z,-1.38
2023-01-15T22:36:59.595Z,-1.39
2023-01-15T22:39:26.541Z,-1.39
2023-01-15T22:42:12.264Z,-1.40
2023-01-15T22:44:39.260Z,-1.40
2023-01-15T22:47:06.392Z,-1.40
2023-01-15T22:49:33.131Z,-1.40
2023-01-15T22:51:59.874Z,-1.40
2023-01-15T22:54:26.549Z,-1.40
2023-01-15T22:56:53.208Z,-1.39
2023-01-15T22:59:20.156Z,-1.38
2023-01-15T23:01:47.042Z,-1.37
2023-01-15T23:04:15.521Z,-1.38
2023-01-15T23:06:42.280Z,-1.38
2023-01-15T23:09:09.071Z,-1.38
2023-01-15T23:11:35.837Z,-1.40
2023-01-15T23:14:02.701Z,-1.39
2023-01-15T23:16:29.365Z,-1.39
2023-01-15T23:18:56.055Z,-1.38
2023-01-15T23:21:23.798Z,-1.38
2023-01-15T23:23:57.540Z,-1.37
2023-01-15T23:26:24.994Z,-1.37
2023-01-15T23:28:51.702Z,-1.35
2023-01-15T23:31:19.083Z,-1.33
2023-01-15T23:33:45.911Z,-1.31
2023-01-15T23:36:13.298Z,-1.30
2023-01-15T23:38:41.350Z,-1.29
2023-01-15T23:41:09.253Z,-1.27
2023-01-15T23:43:54.833Z,-1.25
2023-01-15T23:46:21.623Z,-1.23
2023-01-15T23:48:48.278Z,-1.20
2023-01-15T23:51:15.063Z,-1.18
2023-01-15T23:53:41.839Z,-1.16
2023-01-15T23:56:08.809Z,-1.16
2023-01-15T23:58:35.550Z,-1.15
